Time;durP1;ratioP1;P1;durP2;ratioP2;P2;SDS_P1;SDS_P2;PMS_P1;PMS_P2;Temp;Humidity;BMP_temperature;BMP_pressure;BME280_temperature;BME280_humidity;BME280_pressure;Samples;Min_cycle;Max_cycle;Signal;HPM_P1;HPM_P2
2022/12/12 05:11:29;;;;;;;;;;;;;;;3.67;52.48;96139.59;4247693;27;10349;-73
2022/12/12 05:13:34;;;;;;;;;;;;;;;3.91;52.17;96138.72;4247406;27;5614;-74
2022/12/12 05:15:37;;;;;;;;;;;;;;;4.09;52.13;96144.56;4249067;27;6253;-73
2022/12/12 05:17:48;;;;;;;;;;;;;;;4.27;51.80;96148.75;4248104;27;5621;-74
2022/12/12 05:19:51;;;;;;;;;;;;;;;4.37;51.52;96151.97;4236911;27;5709;-75
2022/12/12 05:21:53;;;;;;;;;;;;;;;4.48;51.44;96151.59;4243931;27;5633;-75
2022/12/12 05:23:56;;;;;;;;;;;;;;;4.60;51.42;96145.00;4248550;27;5677;-75
2022/12/12 05:25:59;;;;;;;;;;;;;;;4.70;51.26;96146.59;4247914;27;5594;-74
2022/12/12 05:28:03;;;;;;;;;;;;;;;4.76;51.21;96145.91;4239954;27;5593;-74
2022/12/12 05:30:07;;;;;;;;;;;;;;;4.79;51.19;96145.56;4248245;27;5840;-75
2022/12/12 05:32:10;;;;;;;;;;;;;;;4.83;50.96;96152.06;4247513;27;5601;-75
2022/12/12 05:34:13;;;;;;;;;;;;;;;4.90;50.99;96147.78;4225748;28;5735;-75
2022/12/12 05:36:16;;;;;;;;;;;;;;;4.92;50.77;96149.22;4245475;27;5641;-74
2022/12/12 05:38:19;;;;;;;;;;;;;;;4.94;50.88;96159.53;4241673;27;5605;-74
2022/12/12 05:40:22;;;;;;;;;;;;;;;4.93;50.72;96152.66;4247572;27;5902;-73
2022/12/12 05:42:25;;;;;;;;;;;;;;;4.95;50.70;96155.91;4235290;27;5612;-73
2022/12/12 05:44:30;;;;;;;;;;;;;;;4.94;50.59;96151.66;4240344;27;6195;-73
2022/12/12 05:46:32;;;;;;;;;;;;;;;4.96;50.74;96149.69;4248110;27;5684;-73
2022/12/12 05:48:35;;;;;;;;;;;;;;;4.96;50.60;96153.13;4248577;27;5598;-73
2022/12/12 05:50:38;;;;;;;;;;;;;;;4.99;50.56;96159.84;4247678;27;5063;-73
2022/12/12 05:52:41;;;;;;;;;;;;;;;4.99;50.45;96159.03;4242883;27;7176;-74
2022/12/12 05:54:44;;;;;;;;;;;;;;;5.01;50.52;96154.44;4213253;28;5827;-74
2022/12/12 05:56:46;;;;;;;;;;;;;;;5.02;50.31;96154.25;4239171;27;5864;-73
2022/12/12 05:58:49;;;;;;;;;;;;;;;5.04;50.42;96157.50;4243255;27;5598;-73
2022/12/12 06:00:53;;;;;;;;;;;;;;;5.06;50.27;96152.91;4240390;27;5734;-73
2022/12/12 06:03:03;;;;;;;;;;;;;;;5.09;50.22;96155.16;4241526;27;5681;-74
2022/12/12 06:05:06;;;;;;;;;;;;;;;5.11;50.11;96147.97;4241555;27;5659;-74
2022/12/12 06:07:09;;;;;;;;;;;;;;;5.12;50.23;96141.72;4239822;27;5683;-73
2022/12/12 06:09:12;;;;;;;;;;;;;;;5.10;50.23;96143.72;4237417;27;5692;-73
2022/12/12 06:11:15;;;;;;;;;;;;;;;5.08;50.13;96145.66;4235394;27;5830;-74
2022/12/12 06:13:18;;;;;;;;;;;;;;;5.09;50.17;96144.69;4233663;28;5715;-73
2022/12/12 06:15:21;;;;;;;;;;;;;;;5.11;49.97;96155.81;4230587;27;5605;-74
2022/12/12 06:17:25;;;;;;;;;;;;;;;5.12;50.13;96157.47;4232345;28;5735;-74
2022/12/12 06:19:34;;;;;;;;;;;;;;;5.14;49.81;96163.31;4230999;28;6214;-74
2022/12/12 06:21:38;;;;;;;;;;;;;;;5.12;49.99;96164.50;4227673;28;5601;-74
2022/12/12 06:23:42;;;;;;;;;;;;;;;5.12;49.89;96162.69;4228478;28;5508;-74
2022/12/12 06:25:49;;;;;;;;;;;;;;;5.13;49.95;96169.56;4226158;28;5827;-73
2022/12/12 06:27:52;;;;;;;;;;;;;;;5.14;50.12;96165.13;4228757;28;5757;-74
2022/12/12 06:29:55;;;;;;;;;;;;;;;5.14;49.74;96165.13;4231248;28;5812;-74
2022/12/12 06:31:57;;;;;;;;;;;;;;;5.15;49.83;96159.72;4224254;28;6523;-74
2022/12/12 06:34:02;;;;;;;;;;;;;;;5.12;49.75;96162.69;4229941;28;6406;-74
2022/12/12 06:36:07;;;;;;;;;;;;;;;5.16;50.03;96168.38;4229349;28;5708;-71
2022/12/12 06:38:09;;;;;;;;;;;;;;;5.14;49.76;96165.94;4224703;27;5669;-73
2022/12/12 06:40:12;;;;;;;;;;;;;;;5.15;49.80;96164.16;4225835;28;5657;-72
2022/12/12 06:42:15;;;;;;;;;;;;;;;5.14;49.65;96165.94;4235045;28;5590;-73
2022/12/12 06:44:18;;;;;;;;;;;;;;;5.12;49.66;96157.47;4236257;28;5890;-72
2022/12/12 06:46:23;;;;;;;;;;;;;;;5.16;49.65;96168.38;4225962;28;5613;-72
2022/12/12 06:48:26;;;;;;;;;;;;;;;5.18;49.62;96177.69;4236489;27;5651;-73
2022/12/12 06:50:30;;;;;;;;;;;;;;;5.17;49.54;96172.63;4235843;28;6271;-73
2022/12/12 06:52:33;;;;;;;;;;;;;;;5.17;49.46;96170.84;4236083;28;5742;-72
2022/12/12 06:54:36;;;;;;;;;;;;;;;5.17;49.50;96178.69;4236246;28;5651;-73
2022/12/12 06:56:39;;;;;;;;;;;;;;;5.16;49.52;96173.63;4236275;28;5647;-73
2022/12/12 06:58:50;;;;;;;;;;;;;;;5.16;49.47;96169.19;4236095;28;5602;-73
2022/12/12 07:00:54;;;;;;;;;;;;;;;5.16;49.40;96177.06;4235513;28;5639;-72
2022/12/12 07:02:57;;;;;;;;;;;;;;;5.17;49.43;96177.88;4235811;28;5700;-73
2022/12/12 07:04:59;;;;;;;;;;;;;;;5.16;49.34;96173.63;4235860;28;6450;-73
2022/12/12 07:07:03;;;;;;;;;;;;;;;5.15;49.36;96178.06;4236192;28;5199;-73
2022/12/12 07:09:07;;;;;;;;;;;;;;;5.14;49.18;96179.06;4236186;28;8603;-73
2022/12/12 07:11:13;;;;;;;;;;;;;;;5.16;49.26;96177.06;4235625;27;5589;-73
2022/12/12 07:13:15;;;;;;;;;;;;;;;5.15;49.16;96177.25;4218183;28;5667;-72
2022/12/12 07:15:18;;;;;;;;;;;;;;;5.14;49.14;96175.63;4236076;28;5611;-73
2022/12/12 07:17:21;;;;;;;;;;;;;;;5.11;49.12;96176.78;4235524;28;5808;-72
2022/12/12 07:19:25;;;;;;;;;;;;;;;5.09;49.23;96183.97;4235914;28;5784;-73
2022/12/12 07:21:28;;;;;;;;;;;;;;;5.09;48.93;96188.41;4227782;28;6435;-72
2022/12/12 07:23:32;;;;;;;;;;;;;;;5.11;49.03;96191.69;4234692;28;6510;-73
2022/12/12 07:25:38;;;;;;;;;;;;;;;5.12;49.01;96198.56;4235791;28;5716;-73
2022/12/12 07:27:41;;;;;;;;;;;;;;;5.13;48.89;96195.75;4235972;28;5610;-73
2022/12/12 07:29:43;;;;;;;;;;;;;;;5.12;48.94;96191.50;4235167;28;5865;-73
2022/12/12 07:31:46;;;;;;;;;;;;;;;5.14;49.04;96202.63;4224840;27;5761;-73
2022/12/12 07:33:49;;;;;;;;;;;;;;;5.15;48.78;96201.66;4220260;27;5730;-73
2022/12/12 07:35:57;;;;;;;;;;;;;;;5.17;48.92;96197.03;4225103;27;5684;-73
2022/12/12 07:38:04;;;;;;;;;;;;;;;5.17;48.74;96210.13;4222066;28;5590;-73
2022/12/12 07:40:09;;;;;;;;;;;;;;;5.17;48.96;96210.13;4227646;28;5739;-73
2022/12/12 07:42:12;;;;;;;;;;;;;;;5.17;48.76;96210.13;4225991;28;5644;-73
2022/12/12 07:44:15;;;;;;;;;;;;;;;5.17;48.77;96209.31;4218017;28;5772;-71
2022/12/12 07:46:21;;;;;;;;;;;;;;;5.15;48.78;96206.88;4211569;28;5640;-72
2022/12/12 07:48:24;;;;;;;;;;;;;;;5.10;48.86;96209.22;4230513;28;5598;-72
2022/12/12 07:50:29;;;;;;;;;;;;;;;5.08;48.69;96215.59;4219569;28;5628;-74
2022/12/12 07:52:32;;;;;;;;;;;;;;;5.10;48.74;96211.84;4234644;28;5613;-72
2022/12/12 07:54:35;;;;;;;;;;;;;;;5.09;48.73;96210.19;4234047;28;5669;-72
2022/12/12 07:56:40;;;;;;;;;;;;;;;5.10;48.83;96218.88;4233848;28;5749;-72
2022/12/12 07:58:43;;;;;;;;;;;;;;;5.09;48.65;96215.41;4228285;28;5712;-73
2022/12/12 08:00:46;;;;;;;;;;;;;;;5.09;48.67;96220.66;4233819;28;6434;-73
2022/12/12 08:02:48;;;;;;;;;;;;;;;5.09;48.64;96225.09;4234036;28;5648;-73
2022/12/12 08:04:51;;;;;;;;;;;;;;;5.10;48.63;96221.50;4225204;28;5693;-73
2022/12/12 08:06:56;;;;;;;;;;;;;;;5.11;48.63;96223.13;4234537;28;5643;-72
2022/12/12 08:09:07;;;;;;;;;;;;;;;5.12;48.64;96225.56;4228637;27;6532;-72
2022/12/12 08:11:14;;;;;;;;;;;;;;;5.16;48.50;96220.78;4233496;28;5648;-72
2022/12/12 08:13:18;;;;;;;;;;;;;;;5.18;48.63;96226.69;4220377;28;5132;-72
2022/12/12 08:15:21;;;;;;;;;;;;;;;5.17;48.44;96225.84;4229846;28;5594;-72
2022/12/12 08:17:24;;;;;;;;;;;;;;;5.19;48.36;96225.69;4225410;28;5836;-73
2022/12/12 08:19:28;;;;;;;;;;;;;;;5.18;48.45;96235.34;4234492;28;5659;-73
2022/12/12 08:21:31;;;;;;;;;;;;;;;5.20;48.18;96230.75;4223913;28;5833;-72
2022/12/12 08:23:33;;;;;;;;;;;;;;;5.20;48.32;96233.38;4225293;28;5677;-73
2022/12/12 08:25:36;;;;;;;;;;;;;;;5.21;48.31;96237.66;4225621;27;5793;-73
2022/12/12 08:27:40;;;;;;;;;;;;;;;5.22;48.29;96241.91;4229091;27;5594;-72
2022/12/12 08:29:45;;;;;;;;;;;;;;;5.22;48.27;96241.91;4226161;28;5966;-72
2022/12/12 08:31:47;;;;;;;;;;;;;;;5.24;48.25;96234.69;4222276;28;5726;-72
2022/12/12 08:33:51;;;;;;;;;;;;;;;5.26;48.23;96235.31;4233444;27;6283;-72
2022/12/12 08:35:54;;;;;;;;;;;;;;;5.26;48.31;96232.69;4225247;27;5754;-73
2022/12/12 08:37:57;;;;;;;;;;;;;;;5.28;48.20;96239.56;4218356;28;5653;-73
2022/12/12 08:40:00;;;;;;;;;;;;;;;5.28;48.32;96248.25;4230566;28;5696;-73
2022/12/12 08:42:03;;;;;;;;;;;;;;;5.28;48.15;96244.81;4233072;28;5734;-73
2022/12/12 08:44:07;;;;;;;;;;;;;;;5.26;48.23;96256.28;4223484;28;5666;-73
2022/12/12 08:46:13;;;;;;;;;;;;;;;5.28;48.20;96256.09;4217282;28;5682;-73
2022/12/12 08:48:20;;;;;;;;;;;;;;;5.29;48.23;96257.72;4232121;28;5639;-73
2022/12/12 08:50:23;;;;;;;;;;;;;;;5.30;48.21;96261.16;4234580;28;5610;-73
2022/12/12 08:52:25;;;;;;;;;;;;;;;5.30;48.20;96266.41;4233895;28;5582;-71
2022/12/12 08:54:28;;;;;;;;;;;;;;;5.28;48.17;96266.59;4229419;28;6348;-72
2022/12/12 08:56:32;;;;;;;;;;;;;;;5.31;48.10;96266.22;4218445;28;5601;-72
2022/12/12 08:58:34;;;;;;;;;;;;;;;5.35;48.08;96267.53;4232875;28;5610;-73
2022/12/12 09:00:37;;;;;;;;;;;;;;;5.35;48.20;96266.72;4224054;28;5803;-73
2022/12/12 09:02:42;;;;;;;;;;;;;;;5.36;47.98;96268.34;4232731;27;5626;-72
2022/12/12 09:04:45;;;;;;;;;;;;;;;5.36;48.11;96269.16;4225979;28;5625;-73
2022/12/12 09:06:48;;;;;;;;;;;;;;;5.36;47.92;96263.09;4217516;28;6302;-72
2022/12/12 09:08:52;;;;;;;;;;;;;;;5.39;48.04;96262.75;4217549;28;5704;-72
2022/12/12 09:10:55;;;;;;;;;;;;;;;5.38;47.92;96255.88;4229838;28;5821;-72
2022/12/12 09:12:57;;;;;;;;;;;;;;;5.36;47.93;96255.25;4233726;28;5651;-72
2022/12/12 09:15:00;;;;;;;;;;;;;;;5.36;47.90;96258.69;4223339;28;5586;-72
2022/12/12 09:17:03;;;;;;;;;;;;;;;5.40;47.81;96270.44;4231889;28;5084;-73
2022/12/12 09:19:07;;;;;;;;;;;;;;;5.42;47.92;96267.63;4233782;28;5707;-73
2022/12/12 09:21:10;;;;;;;;;;;;;;;5.44;47.76;96268.31;4230827;27;5636;-73
2022/12/12 09:23:13;;;;;;;;;;;;;;;5.45;47.71;96267.31;4233474;28;5709;-73
2022/12/12 09:25:16;;;;;;;;;;;;;;;5.44;47.69;96268.31;4231758;28;5594;-73
2022/12/12 09:27:19;;;;;;;;;;;;;;;5.45;47.71;96260.25;4230682;28;5747;-73
2022/12/12 09:29:22;;;;;;;;;;;;;;;5.48;47.72;96269.59;4224880;28;5671;-72
2022/12/12 09:31:25;;;;;;;;;;;;;;;5.49;47.83;96266.78;4233741;27;5644;-73
2022/12/12 09:33:28;;;;;;;;;;;;;;;5.51;47.51;96261.34;4225979;28;5615;-73
2022/12/12 09:35:32;;;;;;;;;;;;;;;5.48;47.72;96265.16;4231525;28;5701;-73
2022/12/12 09:37:35;;;;;;;;;;;;;;;5.49;47.67;96263.34;4225213;27;5689;-72
2022/12/12 09:39:39;;;;;;;;;;;;;;;5.48;47.60;96254.66;4218748;28;5629;-72
2022/12/12 09:41:42;;;;;;;;;;;;;;;5.50;47.54;96257.09;4228249;28;5694;-72
2022/12/12 09:43:51;;;;;;;;;;;;;;;5.49;47.58;96268.59;4220331;28;5661;-72
2022/12/12 09:45:54;;;;;;;;;;;;;;;5.51;47.53;96266.59;4226851;28;5700;-72
2022/12/12 09:48:02;;;;;;;;;;;;;;;5.52;47.55;96276.09;4221320;28;5758;-72
2022/12/12 09:50:14;;;;;;;;;;;;;;;5.53;47.62;96270.66;4236723;28;5734;-72
2022/12/12 09:52:28;;;;;;;;;;;;;;;5.55;47.42;96273.16;4236961;28;5728;-72
2022/12/12 09:54:32;;;;;;;;;;;;;;;5.54;47.58;96276.72;4227423;28;5728;-72
2022/12/12 09:56:42;;;;;;;;;;;;;;;5.53;47.42;96280.34;4235647;28;5103;-73
2022/12/12 09:58:51;;;;;;;;;;;;;;;5.54;47.54;96266.25;4235286;27;6987;-72
2022/12/12 10:01:07;;;;;;;;;;;;;;;5.55;47.25;96258.22;4236385;28;5648;-72
2022/12/12 10:03:25;;;;;;;;;;;;;;;5.55;47.56;96257.41;4235927;27;5652;-72
2022/12/12 10:05:37;;;;;;;;;;;;;;;5.58;47.32;96261.50;4221258;27;5690;-71
2022/12/12 10:07:47;;;;;;;;;;;;;;;5.62;47.38;96266.19;4224157;28;5671;-72
2022/12/12 10:10:01;;;;;;;;;;;;;;;5.59;47.39;96266.56;4236325;28;5597;-71
2022/12/12 10:12:07;;;;;;;;;;;;;;;5.62;47.25;96260.13;4236779;28;5927;-71
2022/12/12 10:14:12;;;;;;;;;;;;;;;5.64;47.16;96251.09;4235672;28;6284;-71
2022/12/12 10:16:15;;;;;;;;;;;;;;;5.67;47.31;96245.53;4234374;28;5794;-71
2022/12/12 10:18:24;;;;;;;;;;;;;;;5.68;47.25;96234.03;4236420;27;5758;-71
2022/12/12 10:20:29;;;;;;;;;;;;;;;5.68;47.21;96233.22;4228733;28;5788;-71
2022/12/12 10:22:37;;;;;;;;;;;;;;;5.66;47.06;96227.31;4226319;28;5691;-70
2022/12/12 10:24:46;;;;;;;;;;;;;;;5.68;47.31;96223.56;4236499;28;5747;-70
2022/12/12 10:26:49;;;;;;;;;;;;;;;5.68;47.03;96220.94;4233901;28;5757;-71
2022/12/12 10:28:55;;;;;;;;;;;;;;;5.68;47.13;96215.69;4236262;28;5660;-71
2022/12/12 10:31:13;;;;;;;;;;;;;;;5.68;47.06;96220.94;4236144;28;5602;-70
2022/12/12 10:33:26;;;;;;;;;;;;;;;5.65;47.12;96231.75;4234958;28;5614;-71
2022/12/12 10:35:38;;;;;;;;;;;;;;;5.66;47.05;96217.63;4227610;28;6540;-70
2022/12/12 10:37:50;;;;;;;;;;;;;;;5.68;47.12;96218.31;4228838;27;5722;-71
2022/12/12 10:40:04;;;;;;;;;;;;;;;5.72;46.96;96221.38;4236039;28;5629;-70
2022/12/12 10:42:14;;;;;;;;;;;;;;;5.71;46.90;96220.56;4222181;28;5739;-71
2022/12/12 10:44:33;;;;;;;;;;;;;;;5.69;46.89;96212.06;4229688;28;5656;-71
2022/12/12 10:46:43;;;;;;;;;;;;;;;5.70;46.98;96223.38;4229170;28;5614;-71
2022/12/12 10:48:47;;;;;;;;;;;;;;;5.72;46.87;96237.94;4225041;28;5602;-71
2022/12/12 10:50:53;;;;;;;;;;;;;;;5.76;46.99;96238.38;4232768;28;5780;-71
2022/12/12 10:52:56;;;;;;;;;;;;;;;5.80;46.94;96234.44;4231357;28;5590;-71
2022/12/12 10:55:01;;;;;;;;;;;;;;;5.80;46.75;96223.94;4225975;28;5621;-71
2022/12/12 10:57:12;;;;;;;;;;;;;;;5.80;46.75;96219.50;4218802;28;5681;-71
2022/12/12 10:59:22;;;;;;;;;;;;;;;5.81;46.73;96204.59;4218691;28;5605;-71
2022/12/12 11:01:29;;;;;;;;;;;;;;;5.85;46.84;96200.59;4227439;28;5617;-70
2022/12/12 11:03:54;;;;;;;;;;;;;;;5.88;46.74;96188.94;4232062;28;5614;-71
2022/12/12 11:05:57;;;;;;;;;;;;;;;5.84;46.82;96189.28;4234597;28;5922;-70
2022/12/12 11:08:03;;;;;;;;;;;;;;;5.88;46.90;96200.25;4235284;28;6498;-71
2022/12/12 11:10:21;;;;;;;;;;;;;;;5.91;46.76;96214.88;4228341;28;5608;-71
2022/12/12 11:12:33;;;;;;;;;;;;;;;5.92;46.64;96211.25;4227754;28;5652;-71
2022/12/12 11:14:38;;;;;;;;;;;;;;;5.93;46.63;96205.00;4235422;28;5799;-71
2022/12/12 11:16:43;;;;;;;;;;;;;;;5.89;46.54;96201.06;4231332;27;5766;-71
2022/12/12 11:19:01;;;;;;;;;;;;;;;5.84;46.53;96197.16;4235426;28;5640;-71
2022/12/12 11:21:09;;;;;;;;;;;;;;;5.82;46.57;96195.72;4235571;28;5601;-71
2022/12/12 11:23:17;;;;;;;;;;;;;;;5.83;46.70;96205.22;4235573;28;5672;-71
2022/12/12 11:25:26;;;;;;;;;;;;;;;5.84;46.54;96199.78;4234072;28;5682;-71
2022/12/12 11:27:31;;;;;;;;;;;;;;;5.90;46.69;96189.59;4219459;28;5696;-71
2022/12/12 11:29:42;;;;;;;;;;;;;;;5.90;46.65;96192.22;4234757;28;5774;-71
2022/12/12 11:31:45;;;;;;;;;;;;;;;5.91;46.65;96191.25;4234047;28;5647;-71
2022/12/12 11:33:52;;;;;;;;;;;;;;;5.89;46.60;96185.31;4235304;28;5605;-71
2022/12/12 11:35:58;;;;;;;;;;;;;;;5.91;46.58;96178.13;4230667;28;5595;-71
2022/12/12 11:38:03;;;;;;;;;;;;;;;5.95;46.44;96184.66;4234506;28;6356;-70
2022/12/12 11:40:23;;;;;;;;;;;;;;;5.94;46.30;96172.53;4235531;28;5659;-70
2022/12/12 11:42:29;;;;;;;;;;;;;;;5.94;46.30;96173.34;4222927;28;5677;-70
2022/12/12 11:44:35;;;;;;;;;;;;;;;5.94;46.54;96162.84;4216898;28;5637;-70
2022/12/12 11:46:38;;;;;;;;;;;;;;;5.97;46.46;96161.66;4232765;28;5656;-70
2022/12/12 11:48:55;;;;;;;;;;;;;;;5.92;46.34;96148.28;4235211;28;5667;-71
2022/12/12 11:50:58;;;;;;;;;;;;;;;5.93;46.41;96157.78;4226411;28;5660;-70
2022/12/12 11:53:01;;;;;;;;;;;;;;;5.95;46.52;96155.78;4226769;28;5655;-71
2022/12/12 11:55:13;;;;;;;;;;;;;;;5.98;46.38;96158.84;4232705;28;5168;-71
2022/12/12 11:57:28;;;;;;;;;;;;;;;6.02;46.45;96159.34;4225901;28;7691;-70
2022/12/12 11:59:48;;;;;;;;;;;;;;;6.00;46.48;96143.78;4217761;28;5699;-71
2022/12/12 12:01:58;;;;;;;;;;;;;;;6.02;46.18;96133.09;4228826;28;5676;-71
2022/12/12 12:04:18;;;;;;;;;;;;;;;6.03;46.39;96134.72;4233203;28;5196;-72
2022/12/12 12:06:36;;;;;;;;;;;;;;;6.04;46.32;96141.59;4230313;28;7656;-71
2022/12/12 12:08:53;;;;;;;;;;;;;;;6.01;46.25;96140.16;4232497;28;5597;-71
2022/12/12 12:11:11;;;;;;;;;;;;;;;5.99;46.27;96130.81;4229603;28;5689;-71
2022/12/12 12:13:34;;;;;;;;;;;;;;;5.98;46.27;96126.56;4225270;28;5609;-71
2022/12/12 12:15:49;;;;;;;;;;;;;;;6.00;46.17;96129.81;4227215;28;5659;-71
2022/12/12 12:18:04;;;;;;;;;;;;;;;6.02;46.26;96125.22;4230211;28;5618;-71
2022/12/12 12:20:18;;;;;;;;;;;;;;;6.00;46.13;96119.31;4229700;28;5613;-71
2022/12/12 12:22:34;;;;;;;;;;;;;;;5.99;46.07;96117.69;4232596;28;5836;-71
2022/12/12 12:24:56;;;;;;;;;;;;;;;5.93;46.21;96119.25;4219958;28;5078;-71
2022/12/12 12:27:08;;;;;;;;;;;;;;;5.91;46.28;96115.19;4230957;28;5643;-63
2022/12/12 12:29:40;;;;;;;;;;;;;;;5.86;46.31;96110.41;4233263;28;5711;-62
2022/12/12 12:31:53;;;;;;;;;;;;;;;5.83;46.28;96108.97;4225642;28;5865;-69
2022/12/12 12:34:10;;;;;;;;;;;;;;;5.87;46.12;96103.38;4229096;28;5598;-71
2022/12/12 12:36:18;;;;;;;;;;;;;;;5.90;46.32;96097.78;4234659;28;5609;-71
2022/12/12 12:38:27;;;;;;;;;;;;;;;5.89;46.06;96091.72;4226968;28;5616;-71
2022/12/12 12:40:48;;;;;;;;;;;;;;;5.89;46.10;96093.50;4226361;28;5764;-71
2022/12/12 12:43:12;;;;;;;;;;;;;;;5.84;46.12;96083.56;4227493;28;5643;-71
2022/12/12 12:45:20;;;;;;;;;;;;;;;5.82;46.16;96089.00;4226037;28;5618;-70
2022/12/12 12:47:31;;;;;;;;;;;;;;;5.83;46.14;96084.56;4228162;28;5807;-69
2022/12/12 12:49:40;;;;;;;;;;;;;;;5.83;46.20;96089.81;4230781;28;5704;-70
2022/12/12 12:51:50;;;;;;;;;;;;;;;5.83;46.26;96089.81;4227745;28;5704;-71
2022/12/12 12:53:59;;;;;;;;;;;;;;;5.83;46.19;96084.56;4229183;28;5595;-71
2022/12/12 12:56:14;;;;;;;;;;;;;;;5.84;46.14;96089.63;4231472;28;5865;-71
2022/12/12 12:58:21;;;;;;;;;;;;;;;5.78;46.17;96074.63;4226520;28;5743;-71
2022/12/12 13:00:30;;;;;;;;;;;;;;;5.78;46.17;96074.63;4223465;28;5602;-71
2022/12/12 13:02:48;;;;;;;;;;;;;;;5.81;46.29;96074.25;4220279;28;5871;-71
2022/12/12 13:04:58;;;;;;;;;;;;;;;5.85;46.27;96072.88;4217755;27;5966;-71
2022/12/12 13:07:06;;;;;;;;;;;;;;;5.82;46.08;96065.38;4225486;27;5731;-70
2022/12/12 13:09:21;;;;;;;;;;;;;;;5.77;46.24;96059.03;4227200;28;5795;-70
2022/12/12 13:11:31;;;;;;;;;;;;;;;5.72;46.15;96058.78;4221462;28;5707;-70
2022/12/12 13:13:37;;;;;;;;;;;;;;;5.64;46.22;96062.28;4229769;28;5676;-70
2022/12/12 13:15:43;;;;;;;;;;;;;;;5.64;46.23;96062.28;4219411;28;5616;-71
2022/12/12 13:17:57;;;;;;;;;;;;;;;5.66;46.44;96049.00;4224730;28;5701;-70
2022/12/12 13:20:01;;;;;;;;;;;;;;;5.70;46.43;96053.72;4226561;28;6310;-70
2022/12/12 13:22:12;;;;;;;;;;;;;;;5.74;46.34;96051.53;4222448;28;5729;-70
2022/12/12 13:24:23;;;;;;;;;;;;;;;5.72;46.33;96037.81;4224465;28;5787;-70
2022/12/12 13:26:32;;;;;;;;;;;;;;;5.75;46.36;96038.25;4226080;28;5609;-70
2022/12/12 13:28:39;;;;;;;;;;;;;;;5.77;46.32;96032.81;4231286;28;5614;-71
2022/12/12 13:30:59;;;;;;;;;;;;;;;5.79;46.15;96036.91;4233587;28;5612;-71
2022/12/12 13:33:28;;;;;;;;;;;;;;;5.82;46.11;96028.66;4229708;28;6293;-71
2022/12/12 13:35:34;;;;;;;;;;;;;;;5.82;46.17;96031.28;4230816;28;6409;-70
2022/12/12 13:37:45;;;;;;;;;;;;;;;5.82;46.26;96022.59;4223165;28;5807;-71
2022/12/12 13:39:59;;;;;;;;;;;;;;;5.78;46.10;96032.66;4226690;28;5811;-70
2022/12/12 13:42:04;;;;;;;;;;;;;;;5.79;46.29;96033.47;4229468;28;5673;-70
2022/12/12 13:44:34;;;;;;;;;;;;;;;5.82;46.24;96033.91;4225969;28;5790;-71
2022/12/12 13:46:40;;;;;;;;;;;;;;;5.82;46.23;96033.91;4228585;28;5599;-70
2022/12/12 13:48:50;;;;;;;;;;;;;;;5.84;46.28;96031.91;4230808;28;5813;-70
2022/12/12 13:51:26;;;;;;;;;;;;;;;5.84;46.21;96042.41;4227813;28;5721;-69
2022/12/12 13:53:28;;;;;;;;;;;;;;;5.82;46.35;96033.09;4226013;28;5837;-70
2022/12/12 13:55:32;;;;;;;;;;;;;;;5.82;46.30;96033.91;4223512;28;5825;-70
2022/12/12 13:57:35;;;;;;;;;;;;;;;5.82;46.30;96039.16;4230405;28;5659;-70
2022/12/12 14:00:11;;;;;;;;;;;;;;;5.85;46.37;96033.53;4230622;28;5710;-70
2022/12/12 14:02:30;;;;;;;;;;;;;;;5.87;46.47;96022.03;4221161;28;5673;-70
2022/12/12 14:04:35;;;;;;;;;;;;;;;5.85;46.41;96017.78;4226080;27;5799;-70
2022/12/12 14:06:38;;;;;;;;;;;;;;;5.85;46.37;96023.03;4226131;28;5701;-69
2022/12/12 14:08:49;;;;;;;;;;;;;;;5.84;46.23;96015.34;4235669;28;5617;-70
2022/12/12 14:10:55;;;;;;;;;;;;;;;5.80;46.27;96020.16;4226067;28;5651;-70
2022/12/12 14:13:16;;;;;;;;;;;;;;;5.81;46.46;96016.53;4225390;27;5610;-70
2022/12/12 14:15:26;;;;;;;;;;;;;;;5.82;46.48;96027.84;4233399;28;5605;-70
2022/12/12 14:17:33;;;;;;;;;;;;;;;5.84;46.46;96017.97;4231241;28;5827;-70
2022/12/12 14:19:44;;;;;;;;;;;;;;;5.85;46.29;96016.97;4229834;28;5863;-70
2022/12/12 14:21:48;;;;;;;;;;;;;;;5.87;46.51;96019.41;4223285;28;5597;-71
2022/12/12 14:23:52;;;;;;;;;;;;;;;5.87;46.33;96024.66;4228233;28;5258;-71
2022/12/12 14:25:57;;;;;;;;;;;;;;;5.85;46.40;96023.03;4223932;28;7174;-71
2022/12/12 14:28:20;;;;;;;;;;;;;;;5.81;46.48;96027.03;4235810;28;5099;-70
2022/12/12 14:30:26;;;;;;;;;;;;;;;5.82;46.43;96012.13;4224564;28;5835;-70
2022/12/12 14:32:42;;;;;;;;;;;;;;;5.82;46.51;96018.16;4225167;28;5720;-71
2022/12/12 14:34:55;;;;;;;;;;;;;;;5.85;46.29;96012.56;4226456;28;5590;-70
2022/12/12 14:37:33;;;;;;;;;;;;;;;5.87;46.26;96020.22;4221871;28;5632;-70
2022/12/12 14:39:56;;;;;;;;;;;;;;;5.85;46.30;96028.28;4228457;28;5597;-72
2022/12/12 14:42:02;;;;;;;;;;;;;;;5.88;46.27;96026.28;4230864;28;6561;-70
2022/12/12 14:44:13;;;;;;;;;;;;;;;5.83;46.33;96030.28;4227276;28;5674;-70
2022/12/12 14:46:40;;;;;;;;;;;;;;;5.80;46.06;96030.66;4233191;28;5594;-70
2022/12/12 14:48:45;;;;;;;;;;;;;;;5.76;46.41;96032.00;4234922;28;6591;-70
2022/12/12 14:50:52;;;;;;;;;;;;;;;5.72;46.44;96029.94;4236126;28;6293;-70
2022/12/12 14:52:56;;;;;;;;;;;;;;;5.74;46.41;96028.75;4234597;28;5617;-72
2022/12/12 14:55:04;;;;;;;;;;;;;;;5.74;46.12;96026.13;4229869;28;5976;-71
2022/12/12 14:57:07;;;;;;;;;;;;;;;5.71;46.00;96031.75;4223032;28;5613;-70
2022/12/12 14:59:16;;;;;;;;;;;;;;;5.68;46.09;96034.72;4233252;28;5601;-71
2022/12/12 15:01:30;;;;;;;;;;;;;;;5.61;46.06;96036.44;4232767;28;5594;-72
2022/12/12 15:03:38;;;;;;;;;;;;;;;5.48;46.18;96025.78;4228318;28;5655;-71
2022/12/12 15:05:43;;;;;;;;;;;;;;;5.39;46.09;96032.09;4234714;28;5088;-71
2022/12/12 15:07:46;;;;;;;;;;;;;;;5.32;46.09;96025.91;4234619;27;5659;-71
2022/12/12 15:09:49;;;;;;;;;;;;;;;5.22;46.25;96028.81;4235272;27;5664;-72
2022/12/12 15:11:55;;;;;;;;;;;;;;;5.15;46.39;96018.22;4234068;28;6188;-70
2022/12/12 15:14:00;;;;;;;;;;;;;;;5.11;46.46;96022.19;4234941;28;5769;-72
2022/12/12 15:16:03;;;;;;;;;;;;;;;5.18;46.44;96017.03;4234286;28;5605;-72
2022/12/12 15:18:06;;;;;;;;;;;;;;;5.23;46.39;96020.78;4234399;28;5603;-73
2022/12/12 15:20:17;;;;;;;;;;;;;;;5.20;46.13;96012.44;4230703;28;5734;-75
2022/12/12 15:22:24;;;;;;;;;;;;;;;5.16;46.36;96012.00;4235420;28;5655;-74
2022/12/12 15:24:35;;;;;;;;;;;;;;;5.17;46.26;96011.00;4229898;28;5829;-78
2022/12/12 15:26:38;;;;;;;;;;;;;;;5.18;46.27;96010.00;4233971;28;5795;-72
2022/12/12 15:28:42;;;;;;;;;;;;;;;5.18;46.37;96014.44;4208969;28;5789;-73
2022/12/12 15:30:50;;;;;;;;;;;;;;;5.19;46.12;96019.50;4227254;28;5748;-70
2022/12/12 15:32:54;;;;;;;;;;;;;;;5.17;45.97;96013.63;4227017;28;5771;-73
2022/12/12 15:35:02;;;;;;;;;;;;;;;5.13;45.87;96020.22;4228212;28;5616;-72
2022/12/12 15:37:24;;;;;;;;;;;;;;;5.10;46.12;96025.81;4226281;28;5653;-72
2022/12/12 15:39:27;;;;;;;;;;;;;;;5.04;46.20;96026.50;4227389;28;5667;-76
2022/12/12 15:41:32;;;;;;;;;;;;;;;4.97;46.21;96033.44;4235142;28;6618;-71
2022/12/12 15:43:36;;;;;;;;;;;;;;;4.96;46.18;96034.44;4235274;27;6649;-76
2022/12/12 15:45:41;;;;;;;;;;;;;;;4.90;45.98;96043.00;4232880;28;5612;-77
2022/12/12 15:47:44;;;;;;;;;;;;;;;4.81;46.10;96047.50;4234101;28;5659;-71
2022/12/12 15:49:47;;;;;;;;;;;;;;;4.72;46.30;96050.34;4224897;28;5625;-73
2022/12/12 15:51:50;;;;;;;;;;;;;;;4.65;46.26;96045.81;4202789;28;5700;-76
2022/12/12 15:53:55;;;;;;;;;;;;;;;4.67;46.38;96049.06;4225738;28;5617;-71
2022/12/12 15:56:01;;;;;;;;;;;;;;;4.72;46.32;96050.34;4227055;28;5613;-72
2022/12/12 15:58:04;;;;;;;;;;;;;;;4.77;46.23;96051.47;4228351;28;5827;-72
2022/12/12 16:00:08;;;;;;;;;;;;;;;4.66;46.17;96047.44;4226854;28;5685;-72
2022/12/12 16:02:29;;;;;;;;;;;;;;;4.68;46.22;96048.09;4228486;28;5590;-70
2022/12/12 16:04:32;;;;;;;;;;;;;;;4.63;46.32;96039.09;4220549;28;5792;-68
2022/12/12 16:06:38;;;;;;;;;;;;;;;4.58;46.36;96036.22;4216074;28;5795;-71
2022/12/12 16:08:46;;;;;;;;;;;;;;;4.60;46.11;96032.41;4216578;28;5732;-71
2022/12/12 16:10:53;;;;;;;;;;;;;;;4.57;46.18;96029.34;4222915;28;5715;-71
2022/12/12 16:12:58;;;;;;;;;;;;;;;4.57;46.36;96027.53;4223316;28;6011;-72
2022/12/12 16:15:18;;;;;;;;;;;;;;;4.63;46.30;96024.22;4233939;28;5597;-75
2022/12/12 16:17:23;;;;;;;;;;;;;;;4.57;46.29;96013.63;4232674;28;5779;-75
2022/12/12 16:19:35;;;;;;;;;;;;;;;4.57;46.22;96017.06;4234031;28;5692;-73
2022/12/12 16:21:42;;;;;;;;;;;;;;;4.60;46.25;96015.91;4233625;28;5689;-73
2022/12/12 16:23:45;;;;;;;;;;;;;;;4.57;46.24;96017.06;4234301;28;5103;-73
2022/12/12 16:25:49;;;;;;;;;;;;;;;4.55;46.29;96016.44;4233526;28;5693;-77
2022/12/12 16:27:58;;;;;;;;;;;;;;;4.56;46.30;96012.81;4232631;28;5598;-77
2022/12/12 16:30:00;;;;;;;;;;;;;;;4.54;46.22;96014.00;4233421;28;5740;-76
2022/12/12 16:32:04;;;;;;;;;;;;;;;4.52;46.17;96016.75;4233650;28;5713;-72